KIPL

Imperial County Airport

Imperial, California, USA
METAR KIPL 210353Z AUTO 16011KT 6SM HZ OVC041 37/19 A2971 RMK AO2 SLP062 T03720194
Observed Flight Rules
Aug-21 @ 03:53 UTC (17 minutes ago) Visual Flight Rules
Wind Visibility Clouds Conditions
160° at 11 knots 6 miles
  • Overcast at 4,100' AGL
  • Haze
Temperatures Readings
Current 37°C / 99°F
Dewpoint 19°C / 66°F
Humidity 35%
Altimeter 29.71" Hg
Pressure 1006.2 hPa
Elevation -17
METAR KIPL 210353Z AUTO 16011KT 6SM HZ OVC041 37/19 A2971 RMK AO2 SLP062 T03720194
Observed Flight Rules
Aug-21 @ 03:53 UTC
(17 minutes ago)
VFR
Wind Visibility
160° at 11 knots 6 miles
Clouds
  • Overcast at 4,100' AGL
Conditions
  • Haze
Temperature Dewpoint
37°C / 99°F 19°C / 66°F
Humidity Altimeter Pressure
35% 29.71" Hg 1006.2 hPa